sensor_id;sensor_type;location;lat;lon;timestamp;P1;durP1;ratioP1;P2;durP2;ratioP2
6537;SDS011;3302;52.508;13.454;2023-04-15T00:00:08;0.37;;;0.37;;
6537;SDS011;3302;52.508;13.454;2023-04-15T00:02:34;0.20;;;0.20;;
6537;SDS011;3302;52.508;13.454;2023-04-15T00:05:01;0.40;;;0.40;;
6537;SDS011;3302;52.508;13.454;2023-04-15T00:07:27;1.33;;;1.23;;
6537;SDS011;3302;52.508;13.454;2023-04-15T00:09:54;0.20;;;0.20;;
6537;SDS011;3302;52.508;13.454;2023-04-15T00:12:22;0.20;;;0.20;;
6537;SDS011;3302;52.508;13.454;2023-04-15T00:14:48;0.20;;;0.20;;
6537;SDS011;3302;52.508;13.454;2023-04-15T00:17:15;0.20;;;0.20;;
6537;SDS011;3302;52.508;13.454;2023-04-15T00:19:41;0.50;;;0.50;;
6537;SDS011;3302;52.508;13.454;2023-04-15T00:22:09;0.30;;;0.30;;
6537;SDS011;3302;52.508;13.454;2023-04-15T00:24:34;0.37;;;0.37;;
6537;SDS011;3302;52.508;13.454;2023-04-15T00:27:01;0.20;;;0.20;;
6537;SDS011;3302;52.508;13.454;2023-04-15T00:29:26;0.40;;;0.40;;
6537;SDS011;3302;52.508;13.454;2023-04-15T00:31:52;0.30;;;0.30;;
6537;SDS011;3302;52.508;13.454;2023-04-15T00:34:18;0.40;;;0.40;;
6537;SDS011;3302;52.508;13.454;2023-04-15T00:36:44;0.30;;;0.30;;
6537;SDS011;3302;52.508;13.454;2023-04-15T00:39:10;0.30;;;0.30;;
6537;SDS011;3302;52.508;13.454;2023-04-15T00:41:36;0.30;;;0.30;;
6537;SDS011;3302;52.508;13.454;2023-04-15T00:44:06;0.67;;;0.67;;
6537;SDS011;3302;52.508;13.454;2023-04-15T00:46:36;0.60;;;0.60;;
6537;SDS011;3302;52.508;13.454;2023-04-15T00:49:04;0.30;;;0.30;;
6537;SDS011;3302;52.508;13.454;2023-04-15T00:51:30;0.20;;;0.20;;
6537;SDS011;3302;52.508;13.454;2023-04-15T00:54:01;0.33;;;0.33;;
6537;SDS011;3302;52.508;13.454;2023-04-15T00:56:28;1.40;;;0.73;;
6537;SDS011;3302;52.508;13.454;2023-04-15T00:58:55;0.20;;;0.20;;
6537;SDS011;3302;52.508;13.454;2023-04-15T01:01:21;0.30;;;0.30;;
6537;SDS011;3302;52.508;13.454;2023-04-15T01:03:50;0.40;;;0.40;;
6537;SDS011;3302;52.508;13.454;2023-04-15T01:06:16;0.37;;;0.37;;
6537;SDS011;3302;52.508;13.454;2023-04-15T01:08:43;0.20;;;0.20;;
6537;SDS011;3302;52.508;13.454;2023-04-15T01:11:11;0.30;;;0.30;;
6537;SDS011;3302;52.508;13.454;2023-04-15T01:13:37;0.20;;;0.20;;
6537;SDS011;3302;52.508;13.454;2023-04-15T01:16:04;0.30;;;0.30;;
6537;SDS011;3302;52.508;13.454;2023-04-15T01:18:30;1.13;;;1.03;;
6537;SDS011;3302;52.508;13.454;2023-04-15T01:20:56;1.23;;;1.23;;
6537;SDS011;3302;52.508;13.454;2023-04-15T01:23:24;0.23;;;0.23;;
6537;SDS011;3302;52.508;13.454;2023-04-15T01:25:50;2.57;;;2.37;;
6537;SDS011;3302;52.508;13.454;2023-04-15T01:28:17;0.30;;;0.30;;
6537;SDS011;3302;52.508;13.454;2023-04-15T01:30:44;0.37;;;0.37;;
6537;SDS011;3302;52.508;13.454;2023-04-15T01:33:10;0.40;;;0.40;;
6537;SDS011;3302;52.508;13.454;2023-04-15T01:35:36;0.20;;;0.20;;
6537;SDS011;3302;52.508;13.454;2023-04-15T01:38:04;0.30;;;0.30;;
6537;SDS011;3302;52.508;13.454;2023-04-15T01:40:31;2.03;;;1.90;;
6537;SDS011;3302;52.508;13.454;2023-04-15T01:42:58;0.30;;;0.30;;
6537;SDS011;3302;52.508;13.454;2023-04-15T01:45:24;0.67;;;0.67;;
6537;SDS011;3302;52.508;13.454;2023-04-15T01:47:50;0.60;;;0.60;;
6537;SDS011;3302;52.508;13.454;2023-04-15T01:50:17;0.30;;;0.30;;
6537;SDS011;3302;52.508;13.454;2023-04-15T01:52:43;0.20;;;0.20;;
6537;SDS011;3302;52.508;13.454;2023-04-15T01:55:08;0.20;;;0.20;;
6537;SDS011;3302;52.508;13.454;2023-04-15T01:57:35;0.30;;;0.30;;
6537;SDS011;3302;52.508;13.454;2023-04-15T02:00:01;0.20;;;0.20;;
6537;SDS011;3302;52.508;13.454;2023-04-15T02:02:28;0.30;;;0.30;;
6537;SDS011;3302;52.508;13.454;2023-04-15T02:04:55;0.33;;;0.33;;
6537;SDS011;3302;52.508;13.454;2023-04-15T02:07:20;0.30;;;0.30;;
6537;SDS011;3302;52.508;13.454;2023-04-15T02:09:46;0.30;;;0.30;;
6537;SDS011;3302;52.508;13.454;2023-04-15T02:12:12;1.50;;;1.40;;
6537;SDS011;3302;52.508;13.454;2023-04-15T02:14:38;0.80;;;0.80;;
6537;SDS011;3302;52.508;13.454;2023-04-15T02:17:03;0.37;;;0.37;;
6537;SDS011;3302;52.508;13.454;2023-04-15T02:19:35;0.77;;;0.73;;
6537;SDS011;3302;52.508;13.454;2023-04-15T02:22:01;0.40;;;0.40;;
6537;SDS011;3302;52.508;13.454;2023-04-15T02:24:27;0.17;;;0.17;;
6537;SDS011;3302;52.508;13.454;2023-04-15T02:26:54;0.60;;;0.60;;
6537;SDS011;3302;52.508;13.454;2023-04-15T02:29:20;0.30;;;0.30;;
6537;SDS011;3302;52.508;13.454;2023-04-15T02:31:47;0.30;;;0.30;;
6537;SDS011;3302;52.508;13.454;2023-04-15T02:34:13;0.20;;;0.20;;
6537;SDS011;3302;52.508;13.454;2023-04-15T02:36:39;0.20;;;0.20;;
6537;SDS011;3302;52.508;13.454;2023-04-15T02:39:05;0.30;;;0.30;;
6537;SDS011;3302;52.508;13.454;2023-04-15T02:41:31;0.30;;;0.30;;
6537;SDS011;3302;52.508;13.454;2023-04-15T02:43:57;0.20;;;0.20;;
6537;SDS011;3302;52.508;13.454;2023-04-15T02:46:22;0.30;;;0.30;;
6537;SDS011;3302;52.508;13.454;2023-04-15T02:48:48;0.20;;;0.20;;
6537;SDS011;3302;52.508;13.454;2023-04-15T02:51:18;0.30;;;0.30;;
6537;SDS011;3302;52.508;13.454;2023-04-15T02:53:47;0.97;;;0.97;;
6537;SDS011;3302;52.508;13.454;2023-04-15T02:56:13;0.23;;;0.23;;
6537;SDS011;3302;52.508;13.454;2023-04-15T02:58:40;0.20;;;0.20;;
6537;SDS011;3302;52.508;13.454;2023-04-15T03:01:07;0.20;;;0.20;;
6537;SDS011;3302;52.508;13.454;2023-04-15T03:03:35;0.50;;;0.50;;
6537;SDS011;3302;52.508;13.454;2023-04-15T03:06:01;0.30;;;0.30;;
6537;SDS011;3302;52.508;13.454;2023-04-15T03:08:27;0.60;;;0.60;;
6537;SDS011;3302;52.508;13.454;2023-04-15T03:10:53;0.30;;;0.30;;
6537;SDS011;3302;52.508;13.454;2023-04-15T03:13:19;0.30;;;0.30;;
6537;SDS011;3302;52.508;13.454;2023-04-15T03:15:45;0.30;;;0.30;;
6537;SDS011;3302;52.508;13.454;2023-04-15T03:18:11;0.40;;;0.40;;
6537;SDS011;3302;52.508;13.454;2023-04-15T03:20:37;0.30;;;0.30;;
6537;SDS011;3302;52.508;13.454;2023-04-15T03:23:03;1.03;;;0.77;;
6537;SDS011;3302;52.508;13.454;2023-04-15T03:25:29;0.20;;;0.20;;
6537;SDS011;3302;52.508;13.454;2023-04-15T03:27:54;0.40;;;0.40;;
6537;SDS011;3302;52.508;13.454;2023-04-15T03:30:21;0.67;;;0.67;;
6537;SDS011;3302;52.508;13.454;2023-04-15T03:32:46;0.20;;;0.20;;
6537;SDS011;3302;52.508;13.454;2023-04-15T03:35:12;0.30;;;0.30;;
6537;SDS011;3302;52.508;13.454;2023-04-15T03:37:38;1.27;;;1.23;;
6537;SDS011;3302;52.508;13.454;2023-04-15T03:40:04;0.33;;;0.33;;
6537;SDS011;3302;52.508;13.454;2023-04-15T03:42:30;0.77;;;0.77;;
6537;SDS011;3302;52.508;13.454;2023-04-15T03:44:56;1.03;;;1.03;;
6537;SDS011;3302;52.508;13.454;2023-04-15T03:47:21;0.63;;;0.63;;
6537;SDS011;3302;52.508;13.454;2023-04-15T03:49:47;0.20;;;0.20;;
6537;SDS011;3302;52.508;13.454;2023-04-15T03:52:13;0.20;;;0.20;;
6537;SDS011;3302;52.508;13.454;2023-04-15T03:54:38;0.30;;;0.30;;
6537;SDS011;3302;52.508;13.454;2023-04-15T03:57:04;0.20;;;0.20;;
6537;SDS011;3302;52.508;13.454;2023-04-15T03:59:30;0.30;;;0.30;;
6537;SDS011;3302;52.508;13.454;2023-04-15T04:01:56;0.30;;;0.30;;
6537;SDS011;3302;52.508;13.454;2023-04-15T04:04:22;0.57;;;0.57;;
6537;SDS011;3302;52.508;13.454;2023-04-15T04:06:48;0.30;;;0.30;;
6537;SDS011;3302;52.508;13.454;2023-04-15T04:09:13;0.30;;;0.30;;
6537;SDS011;3302;52.508;13.454;2023-04-15T04:11:39;0.30;;;0.30;;
6537;SDS011;3302;52.508;13.454;2023-04-15T04:14:05;0.30;;;0.30;;
6537;SDS011;3302;52.508;13.454;2023-04-15T04:16:31;0.30;;;0.30;;
6537;SDS011;3302;52.508;13.454;2023-04-15T04:18:56;0.40;;;0.40;;
6537;SDS011;3302;52.508;13.454;2023-04-15T04:21:22;0.27;;;0.27;;
6537;SDS011;3302;52.508;13.454;2023-04-15T04:23:48;0.77;;;0.77;;
6537;SDS011;3302;52.508;13.454;2023-04-15T04:26:14;0.20;;;0.20;;
6537;SDS011;3302;52.508;13.454;2023-04-15T04:28:40;0.60;;;0.60;;
6537;SDS011;3302;52.508;13.454;2023-04-15T04:31:06;0.30;;;0.30;;
6537;SDS011;3302;52.508;13.454;2023-04-15T04:33:32;0.30;;;0.30;;
6537;SDS011;3302;52.508;13.454;2023-04-15T04:35:58;0.77;;;0.77;;
6537;SDS011;3302;52.508;13.454;2023-04-15T04:38:23;0.83;;;0.83;;
6537;SDS011;3302;52.508;13.454;2023-04-15T04:40:49;0.93;;;0.93;;
6537;SDS011;3302;52.508;13.454;2023-04-15T04:43:15;0.20;;;0.20;;
6537;SDS011;3302;52.508;13.454;2023-04-15T04:45:41;0.30;;;0.30;;
6537;SDS011;3302;52.508;13.454;2023-04-15T04:48:07;0.30;;;0.30;;
6537;SDS011;3302;52.508;13.454;2023-04-15T04:50:34;0.40;;;0.40;;
6537;SDS011;3302;52.508;13.454;2023-04-15T04:53:00;0.37;;;0.37;;
6537;SDS011;3302;52.508;13.454;2023-04-15T04:55:26;0.87;;;0.87;;
6537;SDS011;3302;52.508;13.454;2023-04-15T04:57:52;0.23;;;0.23;;
6537;SDS011;3302;52.508;13.454;2023-04-15T05:00:18;0.97;;;0.97;;
6537;SDS011;3302;52.508;13.454;2023-04-15T05:02:44;0.50;;;0.50;;
6537;SDS011;3302;52.508;13.454;2023-04-15T05:05:10;0.30;;;0.30;;
6537;SDS011;3302;52.508;13.454;2023-04-15T05:07:37;2.20;;;2.10;;
6537;SDS011;3302;52.508;13.454;2023-04-15T05:10:04;0.20;;;0.20;;
6537;SDS011;3302;52.508;13.454;2023-04-15T05:12:30;0.33;;;0.33;;
6537;SDS011;3302;52.508;13.454;2023-04-15T05:14:56;0.30;;;0.30;;
6537;SDS011;3302;52.508;13.454;2023-04-15T05:17:22;0.20;;;0.20;;
6537;SDS011;3302;52.508;13.454;2023-04-15T05:19:48;0.30;;;0.30;;
6537;SDS011;3302;52.508;13.454;2023-04-15T05:22:13;0.63;;;0.63;;
6537;SDS011;3302;52.508;13.454;2023-04-15T05:24:39;0.30;;;0.30;;
6537;SDS011;3302;52.508;13.454;2023-04-15T05:27:05;0.80;;;0.80;;
6537;SDS011;3302;52.508;13.454;2023-04-15T05:29:32;0.30;;;0.30;;
6537;SDS011;3302;52.508;13.454;2023-04-15T05:31:58;1.60;;;1.07;;
6537;SDS011;3302;52.508;13.454;2023-04-15T05:34:25;0.80;;;0.80;;
6537;SDS011;3302;52.508;13.454;2023-04-15T05:36:51;0.20;;;0.20;;
6537;SDS011;3302;52.508;13.454;2023-04-15T05:39:16;0.30;;;0.30;;
6537;SDS011;3302;52.508;13.454;2023-04-15T05:41:42;0.30;;;0.30;;
6537;SDS011;3302;52.508;13.454;2023-04-15T05:44:08;0.30;;;0.30;;
6537;SDS011;3302;52.508;13.454;2023-04-15T05:46:34;0.37;;;0.37;;
6537;SDS011;3302;52.508;13.454;2023-04-15T05:49:00;0.57;;;0.57;;
6537;SDS011;3302;52.508;13.454;2023-04-15T05:51:26;0.40;;;0.40;;
6537;SDS011;3302;52.508;13.454;2023-04-15T05:53:52;0.30;;;0.30;;
6537;SDS011;3302;52.508;13.454;2023-04-15T05:56:17;0.20;;;0.20;;
6537;SDS011;3302;52.508;13.454;2023-04-15T05:58:44;0.40;;;0.40;;
6537;SDS011;3302;52.508;13.454;2023-04-15T06:01:10;0.20;;;0.20;;
6537;SDS011;3302;52.508;13.454;2023-04-15T06:03:36;0.30;;;0.30;;
6537;SDS011;3302;52.508;13.454;2023-04-15T06:06:03;0.20;;;0.20;;
6537;SDS011;3302;52.508;13.454;2023-04-15T06:08:28;0.40;;;0.40;;
6537;SDS011;3302;52.508;13.454;2023-04-15T06:10:54;0.30;;;0.30;;
6537;SDS011;3302;52.508;13.454;2023-04-15T06:13:20;0.50;;;0.50;;
6537;SDS011;3302;52.508;13.454;2023-04-15T06:15:46;0.30;;;0.30;;
6537;SDS011;3302;52.508;13.454;2023-04-15T06:18:12;0.43;;;0.43;;
6537;SDS011;3302;52.508;13.454;2023-04-15T06:20:38;0.23;;;0.23;;
6537;SDS011;3302;52.508;13.454;2023-04-15T06:23:04;0.40;;;0.40;;
6537;SDS011;3302;52.508;13.454;2023-04-15T06:25:30;0.20;;;0.20;;
6537;SDS011;3302;52.508;13.454;2023-04-15T06:27:55;0.83;;;0.80;;
6537;SDS011;3302;52.508;13.454;2023-04-15T06:30:21;0.53;;;0.53;;
6537;SDS011;3302;52.508;13.454;2023-04-15T06:32:47;0.30;;;0.30;;
6537;SDS011;3302;52.508;13.454;2023-04-15T06:35:13;0.20;;;0.20;;
6537;SDS011;3302;52.508;13.454;2023-04-15T06:37:40;0.70;;;0.70;;
6537;SDS011;3302;52.508;13.454;2023-04-15T06:40:06;0.30;;;0.30;;
6537;SDS011;3302;52.508;13.454;2023-04-15T06:42:32;0.37;;;0.37;;
6537;SDS011;3302;52.508;13.454;2023-04-15T06:44:59;0.30;;;0.30;;
6537;SDS011;3302;52.508;13.454;2023-04-15T06:47:25;0.20;;;0.20;;
6537;SDS011;3302;52.508;13.454;2023-04-15T06:49:50;0.70;;;0.70;;
6537;SDS011;3302;52.508;13.454;2023-04-15T06:52:16;0.20;;;0.20;;
6537;SDS011;3302;52.508;13.454;2023-04-15T06:54:42;0.30;;;0.30;;
6537;SDS011;3302;52.508;13.454;2023-04-15T06:57:08;0.33;;;0.33;;
6537;SDS011;3302;52.508;13.454;2023-04-15T06:59:34;0.33;;;0.33;;
6537;SDS011;3302;52.508;13.454;2023-04-15T07:02:00;0.20;;;0.20;;
6537;SDS011;3302;52.508;13.454;2023-04-15T07:04:26;1.77;;;1.63;;
6537;SDS011;3302;52.508;13.454;2023-04-15T07:06:52;0.20;;;0.20;;
6537;SDS011;3302;52.508;13.454;2023-04-15T07:09:20;0.63;;;0.63;;
6537;SDS011;3302;52.508;13.454;2023-04-15T07:11:46;1.17;;;0.87;;
6537;SDS011;3302;52.508;13.454;2023-04-15T07:14:13;0.83;;;0.83;;
6537;SDS011;3302;52.508;13.454;2023-04-15T07:16:39;0.20;;;0.20;;
6537;SDS011;3302;52.508;13.454;2023-04-15T07:19:05;0.20;;;0.20;;
6537;SDS011;3302;52.508;13.454;2023-04-15T07:21:31;0.20;;;0.20;;
6537;SDS011;3302;52.508;13.454;2023-04-15T07:23:57;0.67;;;0.50;;
6537;SDS011;3302;52.508;13.454;2023-04-15T07:26:23;0.30;;;0.30;;
6537;SDS011;3302;52.508;13.454;2023-04-15T07:28:49;0.30;;;0.30;;
6537;SDS011;3302;52.508;13.454;2023-04-15T07:31:15;0.30;;;0.30;;
6537;SDS011;3302;52.508;13.454;2023-04-15T07:33:41;0.20;;;0.20;;
6537;SDS011;3302;52.508;13.454;2023-04-15T07:36:07;0.30;;;0.30;;
6537;SDS011;3302;52.508;13.454;2023-04-15T07:38:33;1.17;;;1.17;;
6537;SDS011;3302;52.508;13.454;2023-04-15T07:40:59;0.30;;;0.30;;
6537;SDS011;3302;52.508;13.454;2023-04-15T07:43:24;0.30;;;0.30;;
6537;SDS011;3302;52.508;13.454;2023-04-15T07:45:51;1.43;;;1.33;;
6537;SDS011;3302;52.508;13.454;2023-04-15T07:48:17;0.30;;;0.30;;
6537;SDS011;3302;52.508;13.454;2023-04-15T07:50:42;0.30;;;0.30;;
6537;SDS011;3302;52.508;13.454;2023-04-15T07:53:08;0.40;;;0.40;;
6537;SDS011;3302;52.508;13.454;2023-04-15T07:55:34;0.87;;;0.87;;
6537;SDS011;3302;52.508;13.454;2023-04-15T07:58:00;0.20;;;0.20;;
6537;SDS011;3302;52.508;13.454;2023-04-15T08:00:26;1.00;;;1.00;;
6537;SDS011;3302;52.508;13.454;2023-04-15T08:02:52;0.40;;;0.40;;
6537;SDS011;3302;52.508;13.454;2023-04-15T08:05:18;0.30;;;0.30;;
6537;SDS011;3302;52.508;13.454;2023-04-15T08:07:44;0.20;;;0.20;;
6537;SDS011;3302;52.508;13.454;2023-04-15T08:10:10;0.20;;;0.20;;
6537;SDS011;3302;52.508;13.454;2023-04-15T08:12:37;0.30;;;0.30;;
6537;SDS011;3302;52.508;13.454;2023-04-15T08:15:03;4.70;;;3.90;;
6537;SDS011;3302;52.508;13.454;2023-04-15T08:17:29;0.30;;;0.30;;
6537;SDS011;3302;52.508;13.454;2023-04-15T08:19:54;0.40;;;0.40;;
6537;SDS011;3302;52.508;13.454;2023-04-15T08:22:21;0.30;;;0.30;;
6537;SDS011;3302;52.508;13.454;2023-04-15T08:24:47;0.40;;;0.40;;
6537;SDS011;3302;52.508;13.454;2023-04-15T08:27:13;0.40;;;0.40;;
6537;SDS011;3302;52.508;13.454;2023-04-15T08:29:38;0.40;;;0.40;;
6537;SDS011;3302;52.508;13.454;2023-04-15T08:32:04;0.20;;;0.20;;
6537;SDS011;3302;52.508;13.454;2023-04-15T08:34:30;0.40;;;0.40;;
6537;SDS011;3302;52.508;13.454;2023-04-15T08:36:56;0.30;;;0.30;;
6537;SDS011;3302;52.508;13.454;2023-04-15T08:39:22;0.20;;;0.20;;
6537;SDS011;3302;52.508;13.454;2023-04-15T08:41:55;0.30;;;0.30;;
6537;SDS011;3302;52.508;13.454;2023-04-15T08:44:32;0.30;;;0.30;;
6537;SDS011;3302;52.508;13.454;2023-04-15T08:47:02;0.20;;;0.20;;
6537;SDS011;3302;52.508;13.454;2023-04-15T08:49:31;0.30;;;0.30;;
6537;SDS011;3302;52.508;13.454;2023-04-15T08:51:59;0.20;;;0.20;;
6537;SDS011;3302;52.508;13.454;2023-04-15T08:54:25;3.13;;;0.83;;
6537;SDS011;3302;52.508;13.454;2023-04-15T08:56:52;0.27;;;0.27;;
6537;SDS011;3302;52.508;13.454;2023-04-15T08:59:19;0.30;;;0.30;;
6537;SDS011;3302;52.508;13.454;2023-04-15T09:01:48;0.20;;;0.20;;
6537;SDS011;3302;52.508;13.454;2023-04-15T09:04:17;0.30;;;0.30;;
6537;SDS011;3302;52.508;13.454;2023-04-15T09:06:43;0.30;;;0.30;;
6537;SDS011;3302;52.508;13.454;2023-04-15T09:09:09;0.30;;;0.30;;
6537;SDS011;3302;52.508;13.454;2023-04-15T09:11:37;0.40;;;0.40;;
6537;SDS011;3302;52.508;13.454;2023-04-15T09:14:03;0.30;;;0.30;;
6537;SDS011;3302;52.508;13.454;2023-04-15T09:16:28;1.47;;;1.43;;
6537;SDS011;3302;52.508;13.454;2023-04-15T09:18:54;0.30;;;0.30;;
6537;SDS011;3302;52.508;13.454;2023-04-15T09:21:20;0.33;;;0.33;;
6537;SDS011;3302;52.508;13.454;2023-04-15T09:23:57;0.37;;;0.37;;
6537;SDS011;3302;52.508;13.454;2023-04-15T09:26:36;1.03;;;1.03;;
6537;SDS011;3302;52.508;13.454;2023-04-15T09:29:04;0.40;;;0.40;;
6537;SDS011;3302;52.508;13.454;2023-04-15T09:31:35;0.30;;;0.30;;
6537;SDS011;3302;52.508;13.454;2023-04-15T09:34:01;0.20;;;0.20;;
6537;SDS011;3302;52.508;13.454;2023-04-15T09:36:27;0.40;;;0.40;;
6537;SDS011;3302;52.508;13.454;2023-04-15T09:38:55;0.37;;;0.37;;
6537;SDS011;3302;52.508;13.454;2023-04-15T09:41:21;0.37;;;0.37;;
6537;SDS011;3302;52.508;13.454;2023-04-15T09:43:48;0.50;;;0.50;;
6537;SDS011;3302;52.508;13.454;2023-04-15T09:46:14;0.30;;;0.30;;
6537;SDS011;3302;52.508;13.454;2023-04-15T09:48:40;0.30;;;0.30;;
6537;SDS011;3302;52.508;13.454;2023-04-15T09:51:06;0.30;;;0.30;;
6537;SDS011;3302;52.508;13.454;2023-04-15T09:53:33;0.30;;;0.30;;
6537;SDS011;3302;52.508;13.454;2023-04-15T09:56:00;0.50;;;0.50;;
6537;SDS011;3302;52.508;13.454;2023-04-15T09:58:27;0.40;;;0.40;;
6537;SDS011;3302;52.508;13.454;2023-04-15T10:00:58;0.20;;;0.20;;
6537;SDS011;3302;52.508;13.454;2023-04-15T10:05:54;0.20;;;0.20;;
6537;SDS011;3302;52.508;13.454;2023-04-15T10:08:22;0.40;;;0.40;;
6537;SDS011;3302;52.508;13.454;2023-04-15T10:10:49;0.30;;;0.30;;
6537;SDS011;3302;52.508;13.454;2023-04-15T10:13:19;0.20;;;0.20;;
6537;SDS011;3302;52.508;13.454;2023-04-15T10:18:24;0.83;;;0.67;;
6537;SDS011;3302;52.508;13.454;2023-04-15T10:20:51;0.30;;;0.30;;
6537;SDS011;3302;52.508;13.454;2023-04-15T10:23:18;0.87;;;0.87;;
6537;SDS011;3302;52.508;13.454;2023-04-15T10:25:45;0.30;;;0.30;;
6537;SDS011;3302;52.508;13.454;2023-04-15T10:28:14;0.20;;;0.20;;
6537;SDS011;3302;52.508;13.454;2023-04-15T10:30:41;0.33;;;0.33;;
6537;SDS011;3302;52.508;13.454;2023-04-15T10:33:08;0.30;;;0.30;;
6537;SDS011;3302;52.508;13.454;2023-04-15T10:35:35;0.20;;;0.20;;
6537;SDS011;3302;52.508;13.454;2023-04-15T10:38:01;0.30;;;0.30;;
6537;SDS011;3302;52.508;13.454;2023-04-15T10:40:47;0.20;;;0.20;;
6537;SDS011;3302;52.508;13.454;2023-04-15T10:43:23;0.27;;;0.27;;
6537;SDS011;3302;52.508;13.454;2023-04-15T10:45:52;0.27;;;0.27;;
6537;SDS011;3302;52.508;13.454;2023-04-15T10:48:18;0.30;;;0.30;;
6537;SDS011;3302;52.508;13.454;2023-04-15T10:50:54;0.20;;;0.20;;
6537;SDS011;3302;52.508;13.454;2023-04-15T10:53:27;0.30;;;0.30;;
6537;SDS011;3302;52.508;13.454;2023-04-15T10:55:53;0.30;;;0.30;;
6537;SDS011;3302;52.508;13.454;2023-04-15T10:58:22;0.30;;;0.30;;
6537;SDS011;3302;52.508;13.454;2023-04-15T11:00:49;0.30;;;0.30;;
6537;SDS011;3302;52.508;13.454;2023-04-15T11:03:37;0.50;;;0.50;;
6537;SDS011;3302;52.508;13.454;2023-04-15T11:06:05;0.30;;;0.30;;
6537;SDS011;3302;52.508;13.454;2023-04-15T11:14:26;0.30;;;0.30;;
6537;SDS011;3302;52.508;13.454;2023-04-15T11:16:52;0.30;;;0.30;;
6537;SDS011;3302;52.508;13.454;2023-04-15T11:19:18;0.30;;;0.30;;
6537;SDS011;3302;52.508;13.454;2023-04-15T11:21:44;0.20;;;0.20;;
6537;SDS011;3302;52.508;13.454;2023-04-15T11:24:10;0.87;;;0.87;;
6537;SDS011;3302;52.508;13.454;2023-04-15T11:26:35;0.20;;;0.20;;
6537;SDS011;3302;52.508;13.454;2023-04-15T11:29:01;0.20;;;0.20;;
6537;SDS011;3302;52.508;13.454;2023-04-15T11:31:27;0.23;;;0.23;;
6537;SDS011;3302;52.508;13.454;2023-04-15T11:33:54;0.33;;;0.33;;
6537;SDS011;3302;52.508;13.454;2023-04-15T11:36:25;0.30;;;0.30;;
6537;SDS011;3302;52.508;13.454;2023-04-15T11:38:52;0.20;;;0.20;;
6537;SDS011;3302;52.508;13.454;2023-04-15T11:41:21;0.30;;;0.30;;
6537;SDS011;3302;52.508;13.454;2023-04-15T11:43:48;0.23;;;0.23;;
6537;SDS011;3302;52.508;13.454;2023-04-15T11:46:14;0.20;;;0.20;;
6537;SDS011;3302;52.508;13.454;2023-04-15T11:48:41;0.20;;;0.20;;
6537;SDS011;3302;52.508;13.454;2023-04-15T11:51:09;0.30;;;0.30;;
6537;SDS011;3302;52.508;13.454;2023-04-15T11:56:02;0.30;;;0.30;;
6537;SDS011;3302;52.508;13.454;2023-04-15T11:58:28;2.27;;;1.87;;
6537;SDS011;3302;52.508;13.454;2023-04-15T12:00:55;0.20;;;0.20;;
6537;SDS011;3302;52.508;13.454;2023-04-15T12:03:23;0.30;;;0.30;;
6537;SDS011;3302;52.508;13.454;2023-04-15T12:06:33;0.30;;;0.30;;
6537;SDS011;3302;52.508;13.454;2023-04-15T12:13:52;12.00;;;10.80;;
6537;SDS011;3302;52.508;13.454;2023-04-15T12:16:28;11.57;;;10.40;;
6537;SDS011;3302;52.508;13.454;2023-04-15T12:18:54;11.87;;;10.70;;
6537;SDS011;3302;52.508;13.454;2023-04-15T12:21:22;11.27;;;9.97;;
6537;SDS011;3302;52.508;13.454;2023-04-15T12:23:49;11.33;;;10.13;;
6537;SDS011;3302;52.508;13.454;2023-04-15T12:26:16;11.53;;;10.33;;
6537;SDS011;3302;52.508;13.454;2023-04-15T12:28:43;10.77;;;9.67;;
6537;SDS011;3302;52.508;13.454;2023-04-15T12:31:09;11.33;;;10.13;;
6537;SDS011;3302;52.508;13.454;2023-04-15T12:33:37;10.77;;;9.67;;
6537;SDS011;3302;52.508;13.454;2023-04-15T12:36:03;10.93;;;9.83;;
6537;SDS011;3302;52.508;13.454;2023-04-15T12:38:29;11.63;;;10.07;;
6537;SDS011;3302;52.508;13.454;2023-04-15T12:40:56;10.60;;;9.60;;
6537;SDS011;3302;52.508;13.454;2023-04-15T12:43:22;10.47;;;9.37;;
6537;SDS011;3302;52.508;13.454;2023-04-15T12:45:49;10.20;;;9.17;;
6537;SDS011;3302;52.508;13.454;2023-04-15T12:48:15;8.90;;;8.00;;
6537;SDS011;3302;52.508;13.454;2023-04-15T12:50:40;9.97;;;9.03;;
6537;SDS011;3302;52.508;13.454;2023-04-15T12:53:06;8.87;;;8.07;;
6537;SDS011;3302;52.508;13.454;2023-04-15T12:55:33;8.97;;;8.03;;
6537;SDS011;3302;52.508;13.454;2023-04-15T12:57:59;9.63;;;8.63;;
6537;SDS011;3302;52.508;13.454;2023-04-15T13:00:25;9.37;;;8.47;;
6537;SDS011;3302;52.508;13.454;2023-04-15T13:02:50;9.20;;;8.30;;
6537;SDS011;3302;52.508;13.454;2023-04-15T13:05:16;9.10;;;8.23;;
6537;SDS011;3302;52.508;13.454;2023-04-15T13:07:42;10.43;;;9.40;;
6537;SDS011;3302;52.508;13.454;2023-04-15T13:10:08;9.77;;;8.60;;
6537;SDS011;3302;52.508;13.454;2023-04-15T13:12:34;9.83;;;8.93;;
6537;SDS011;3302;52.508;13.454;2023-04-15T13:15:03;9.30;;;8.37;;
6537;SDS011;3302;52.508;13.454;2023-04-15T13:17:29;9.20;;;8.30;;
6537;SDS011;3302;52.508;13.454;2023-04-15T13:19:55;8.70;;;7.83;;
6537;SDS011;3302;52.508;13.454;2023-04-15T13:22:21;9.37;;;8.47;;
6537;SDS011;3302;52.508;13.454;2023-04-15T13:24:47;9.77;;;8.60;;
6537;SDS011;3302;52.508;13.454;2023-04-15T13:27:12;9.10;;;8.20;;
6537;SDS011;3302;52.508;13.454;2023-04-15T13:29:38;8.63;;;7.73;;
6537;SDS011;3302;52.508;13.454;2023-04-15T13:32:04;9.30;;;8.27;;
6537;SDS011;3302;52.508;13.454;2023-04-15T13:34:30;9.37;;;8.23;;
6537;SDS011;3302;52.508;13.454;2023-04-15T13:36:56;8.27;;;7.43;;
6537;SDS011;3302;52.508;13.454;2023-04-15T13:39:22;8.33;;;7.53;;
6537;SDS011;3302;52.508;13.454;2023-04-15T13:41:48;7.70;;;7.00;;
6537;SDS011;3302;52.508;13.454;2023-04-15T13:44:14;9.50;;;8.50;;
6537;SDS011;3302;52.508;13.454;2023-04-15T13:46:40;7.73;;;7.03;;
6537;SDS011;3302;52.508;13.454;2023-04-15T13:49:08;7.70;;;7.00;;
6537;SDS011;3302;52.508;13.454;2023-04-15T13:51:34;7.93;;;7.13;;
6537;SDS011;3302;52.508;13.454;2023-04-15T13:54:02;7.63;;;6.87;;
6537;SDS011;3302;52.508;13.454;2023-04-15T13:56:28;7.73;;;7.03;;
6537;SDS011;3302;52.508;13.454;2023-04-15T13:58:54;11.37;;;9.07;;
6537;SDS011;3302;52.508;13.454;2023-04-15T14:01:23;8.20;;;7.40;;
6537;SDS011;3302;52.508;13.454;2023-04-15T14:03:49;8.10;;;7.30;;
6537;SDS011;3302;52.508;13.454;2023-04-15T14:06:15;7.37;;;6.63;;
6537;SDS011;3302;52.508;13.454;2023-04-15T14:08:41;7.50;;;6.70;;
6537;SDS011;3302;52.508;13.454;2023-04-15T14:11:07;6.33;;;5.73;;
6537;SDS011;3302;52.508;13.454;2023-04-15T14:13:33;6.50;;;5.90;;
6537;SDS011;3302;52.508;13.454;2023-04-15T14:15:58;7.40;;;6.70;;
6537;SDS011;3302;52.508;13.454;2023-04-15T14:18:24;7.80;;;7.00;;
6537;SDS011;3302;52.508;13.454;2023-04-15T14:20:50;7.13;;;6.43;;
6537;SDS011;3302;52.508;13.454;2023-04-15T14:23:16;6.03;;;5.43;;
6537;SDS011;3302;52.508;13.454;2023-04-15T14:25:42;6.90;;;6.20;;
6537;SDS011;3302;52.508;13.454;2023-04-15T14:28:07;8.17;;;7.40;;
6537;SDS011;3302;52.508;13.454;2023-04-15T14:30:33;6.70;;;5.33;;
6537;SDS011;3302;52.508;13.454;2023-04-15T14:32:59;6.70;;;6.10;;
6537;SDS011;3302;52.508;13.454;2023-04-15T14:35:25;7.13;;;6.43;;
6537;SDS011;3302;52.508;13.454;2023-04-15T14:37:51;6.73;;;6.13;;
6537;SDS011;3302;52.508;13.454;2023-04-15T14:40:18;6.97;;;6.27;;
6537;SDS011;3302;52.508;13.454;2023-04-15T14:42:44;7.77;;;6.43;;
6537;SDS011;3302;52.508;13.454;2023-04-15T14:45:10;6.73;;;6.13;;
6537;SDS011;3302;52.508;13.454;2023-04-15T14:47:36;6.90;;;6.13;;
6537;SDS011;3302;52.508;13.454;2023-04-15T14:50:02;6.30;;;5.57;;
6537;SDS011;3302;52.508;13.454;2023-04-15T14:52:29;6.67;;;6.07;;
6537;SDS011;3302;52.508;13.454;2023-04-15T14:54:57;6.90;;;6.30;;
6537;SDS011;3302;52.508;13.454;2023-04-15T14:57:23;7.83;;;6.90;;
6537;SDS011;3302;52.508;13.454;2023-04-15T14:59:48;6.83;;;6.20;;
6537;SDS011;3302;52.508;13.454;2023-04-15T15:02:14;7.17;;;6.47;;
6537;SDS011;3302;52.508;13.454;2023-04-15T15:04:40;7.43;;;6.73;;
6537;SDS011;3302;52.508;13.454;2023-04-15T15:07:06;7.43;;;6.60;;
6537;SDS011;3302;52.508;13.454;2023-04-15T15:09:32;7.80;;;7.00;;
6537;SDS011;3302;52.508;13.454;2023-04-15T15:11:57;8.83;;;7.47;;
6537;SDS011;3302;52.508;13.454;2023-04-15T15:14:23;7.20;;;6.50;;